Time;durP1;ratioP1;P1;durP2;ratioP2;P2;SDS_P1;SDS_P2;PMS_P1;PMS_P2;Temp;Humidity;BMP_temperature;BMP_pressure;BME280_temperature;BME280_humidity;BME280_pressure;Samples;Min_cycle;Max_cycle;Signal;HPM_P1;HPM_P2
2023/09/26 00:01:09;;;;;;;7.65;6.90;;;15.30;99.90;;;;;;5063902;28;20032;-36
2023/09/26 00:03:35;;;;;;;7.43;6.72;;;15.30;99.90;;;;;;5063243;28;20053;-39
2023/09/26 00:06:02;;;;;;;7.53;6.80;;;15.30;99.90;;;;;;5069281;28;20094;-37
2023/09/26 00:08:27;;;;;;;8.13;7.38;;;15.30;99.90;;;;;;5067334;28;20044;-36
2023/09/26 00:10:53;;;;;;;9.00;8.10;;;15.30;99.90;;;;;;5067327;28;20046;-36
2023/09/26 00:13:19;;;;;;;11.18;8.25;;;15.30;99.90;;;;;;5070888;28;20067;-35
2023/09/26 00:15:45;;;;;;;7.82;7.13;;;15.30;99.90;;;;;;5070067;28;20040;-37
2023/09/26 00:18:10;;;;;;;9.90;8.68;;;15.30;99.90;;;;;;5070666;28;20042;-36
2023/09/26 00:20:38;;;;;;;9.77;8.23;;;15.30;99.90;;;;;;5070660;28;20387;-36
2023/09/26 00:23:04;;;;;;;9.10;8.15;;;15.30;99.90;;;;;;5070641;28;20040;-37
2023/09/26 00:25:30;;;;;;;10.07;9.02;;;15.30;99.90;;;;;;5071282;28;20072;-36
2023/09/26 00:27:56;;;;;;;10.90;7.93;;;15.30;99.90;;;;;;5067347;28;20071;-36
2023/09/26 00:30:24;;;;;;;9.77;8.57;;;15.30;99.90;;;;;;5066828;28;20028;-36
2023/09/26 00:32:50;;;;;;;9.27;8.35;;;15.30;99.90;;;;;;5068872;28;20110;-36
2023/09/26 00:35:15;;;;;;;10.95;8.65;;;15.30;99.90;;;;;;5070933;28;20075;-37
2023/09/26 00:37:42;;;;;;;11.05;9.93;;;15.30;99.90;;;;;;5069992;28;20182;-35
2023/09/26 00:40:15;;;;;;;10.57;9.63;;;15.20;99.90;;;;;;5065311;28;20028;-37
2023/09/26 00:42:42;;;;;;;10.40;9.43;;;15.20;99.90;;;;;;5070718;28;20040;-35
2023/09/26 00:45:09;;;;;;;10.75;8.70;;;15.20;99.90;;;;;;5069510;28;20170;-38
2023/09/26 00:47:35;;;;;;;11.57;10.50;;;15.20;99.90;;;;;;5061256;28;20494;-36
2023/09/26 00:50:07;;;;;;;10.93;9.77;;;15.20;99.90;;;;;;5061220;28;20049;-36
2023/09/26 00:52:35;;;;;;;11.30;9.82;;;15.10;99.90;;;;;;5069811;28;20040;-37
2023/09/26 00:55:03;;;;;;;11.55;10.38;;;15.10;99.90;;;;;;5071528;28;20041;-35
2023/09/26 00:57:33;;;;;;;11.45;10.45;;;15.10;99.90;;;;;;5061268;28;20040;-37
2023/09/26 01:00:02;;;;;;;11.82;10.63;;;15.10;99.90;;;;;;5057766;28;20406;-33
2023/09/26 01:02:27;;;;;;;13.45;12.15;;;15.10;99.90;;;;;;5072258;28;20055;-33
2023/09/26 01:04:53;;;;;;;12.25;10.90;;;15.00;99.90;;;;;;5070259;28;20036;-33
2023/09/26 01:07:21;;;;;;;12.02;11.02;;;15.00;99.90;;;;;;5066024;28;20089;-33
2023/09/26 01:09:47;;;;;;;14.65;11.75;;;14.90;99.90;;;;;;5073889;28;20402;-33
2023/09/26 01:12:14;;;;;;;12.48;11.00;;;14.80;99.90;;;;;;5070615;28;20514;-32
2023/09/26 01:14:40;;;;;;;13.18;11.82;;;14.70;99.90;;;;;;5073881;28;20048;-33
2023/09/26 01:17:06;;;;;;;14.43;13.05;;;14.60;99.90;;;;;;5050731;28;20045;-33
2023/09/26 01:19:31;;;;;;;14.45;11.95;;;14.50;99.90;;;;;;5073434;28;20093;-33
2023/09/26 01:21:58;;;;;;;13.65;12.35;;;14.40;99.90;;;;;;5074133;28;20040;-35
2023/09/26 01:24:24;;;;;;;13.23;11.95;;;14.40;99.90;;;;;;5077801;28;20106;-34
2023/09/26 01:26:49;;;;;;;14.02;12.57;;;14.30;99.90;;;;;;5074017;28;20139;-33
2023/09/26 01:29:15;;;;;;;14.15;12.93;;;14.20;99.90;;;;;;5068812;28;20513;-33
2023/09/26 01:31:42;;;;;;;14.35;12.90;;;14.10;99.90;;;;;;5073897;28;20040;-33
2023/09/26 01:34:08;;;;;;;13.50;12.18;;;14.00;99.90;;;;;;5074229;28;20518;-33
2023/09/26 01:36:33;;;;;;;17.17;12.65;;;14.00;99.90;;;;;;5077564;28;20399;-32
2023/09/26 01:38:59;;;;;;;13.73;12.52;;;13.90;99.90;;;;;;5073355;28;20033;-32
2023/09/26 01:41:26;;;;;;;14.45;13.05;;;13.80;99.90;;;;;;5073053;28;20032;-35
2023/09/26 01:43:52;;;;;;;15.02;13.43;;;13.70;99.90;;;;;;5067153;28;20040;-33
2023/09/26 01:46:19;;;;;;;14.15;12.90;;;13.70;99.90;;;;;;5073810;28;20515;-32
2023/09/26 01:48:45;;;;;;;15.07;13.57;;;13.60;99.90;;;;;;5071260;28;20118;-33
2023/09/26 01:51:10;;;;;;;14.20;12.88;;;13.50;99.90;;;;;;5073221;28;20487;-34
2023/09/26 01:53:36;;;;;;;15.07;13.68;;;13.50;99.90;;;;;;5066652;28;20047;-34
2023/09/26 01:56:02;;;;;;;14.95;13.57;;;13.40;99.90;;;;;;5064918;28;20029;-32
2023/09/26 01:58:28;;;;;;;14.38;13.07;;;13.30;99.90;;;;;;5069788;28;20412;-33
2023/09/26 02:00:53;;;;;;;14.80;13.32;;;13.20;99.90;;;;;;5066432;28;20033;-33
2023/09/26 02:03:19;;;;;;;14.88;13.48;;;13.10;99.90;;;;;;5070706;28;20082;-33
2023/09/26 02:05:45;;;;;;;14.75;13.30;;;13.10;99.90;;;;;;5070995;28;20037;-33
2023/09/26 02:08:11;;;;;;;15.52;14.00;;;13.00;99.90;;;;;;5074621;28;20386;-33
2023/09/26 02:10:37;;;;;;;15.18;13.55;;;13.00;99.90;;;;;;5074196;28;20094;-33
2023/09/26 02:13:03;;;;;;;15.25;13.95;;;13.00;99.90;;;;;;5072598;28;20028;-33
2023/09/26 02:15:29;;;;;;;16.38;14.85;;;12.90;99.90;;;;;;5072705;28;20120;-33
2023/09/26 02:17:54;;;;;;;16.48;14.80;;;12.90;99.90;;;;;;5074712;28;20067;-33
2023/09/26 02:20:20;;;;;;;15.98;14.48;;;12.80;99.90;;;;;;5065490;28;20032;-33
2023/09/26 02:22:50;;;;;;;15.15;13.65;;;12.80;99.90;;;;;;5072780;28;20079;-34
2023/09/26 02:25:19;;;;;;;16.77;15.23;;;12.70;99.90;;;;;;5071124;28;20028;-32
2023/09/26 02:27:45;;;;;;;15.60;14.02;;;12.70;99.90;;;;;;5067454;28;20041;-33
2023/09/26 02:30:13;;;;;;;15.25;13.77;;;12.60;99.90;;;;;;5053872;28;20044;-34
2023/09/26 02:32:39;;;;;;;16.33;14.85;;;12.60;99.90;;;;;;5072518;28;20040;-33
2023/09/26 02:35:07;;;;;;;16.35;14.95;;;12.60;99.90;;;;;;5076361;28;20138;-33
2023/09/26 02:37:33;;;;;;;17.75;15.95;;;12.50;99.90;;;;;;5069098;28;20047;-32
2023/09/26 02:40:00;;;;;;;16.52;14.88;;;12.50;99.90;;;;;;5067169;28;20029;-34
2023/09/26 02:42:26;;;;;;;17.45;14.80;;;12.40;99.90;;;;;;5068521;28;20537;-33
2023/09/26 02:44:52;;;;;;;16.27;14.77;;;12.40;99.90;;;;;;5072224;28;20123;-32
2023/09/26 02:47:17;;;;;;;16.90;15.10;;;12.40;99.90;;;;;;5072382;28;20028;-32
2023/09/26 02:49:43;;;;;;;16.13;14.57;;;12.40;99.90;;;;;;5063743;28;20181;-33
2023/09/26 02:52:09;;;;;;;16.75;15.15;;;12.40;99.90;;;;;;5066989;28;20043;-33
2023/09/26 02:54:34;;;;;;;18.13;16.42;;;12.40;99.90;;;;;;5065889;28;20655;-33
2023/09/26 02:57:00;;;;;;;17.33;15.55;;;12.30;99.90;;;;;;5071550;28;20119;-33
2023/09/26 02:59:26;;;;;;;17.42;15.82;;;12.30;99.90;;;;;;5073789;28;20036;-33
2023/09/26 03:01:52;;;;;;;16.48;14.88;;;12.20;99.90;;;;;;5119035;22;20044;-90
2023/09/26 03:04:17;;;;;;;16.48;14.93;;;12.30;99.90;;;;;;5068158;28;20036;-90
2023/09/26 03:06:43;;;;;;;15.43;14.00;;;12.20;99.90;;;;;;5067569;28;20104;-89
2023/09/26 03:09:09;;;;;;;17.85;16.25;;;12.20;99.90;;;;;;5079284;28;20040;-90
2023/09/26 03:11:35;;;;;;;15.95;14.55;;;12.20;99.90;;;;;;5074181;28;20031;-90
2023/09/26 03:14:00;;;;;;;16.13;14.52;;;12.10;99.90;;;;;;5059191;28;20028;-89
2023/09/26 03:16:26;;;;;;;16.42;14.93;;;12.10;99.90;;;;;;5058334;28;20047;-89
2023/09/26 03:18:56;;;;;;;17.55;16.00;;;12.10;99.90;;;;;;5060738;28;20123;-89
2023/09/26 03:21:22;;;;;;;16.17;14.65;;;12.10;99.90;;;;;;5077292;28;20497;-89
2023/09/26 03:23:48;;;;;;;16.38;14.77;;;12.10;99.90;;;;;;5076858;28;20053;-89
2023/09/26 03:26:14;;;;;;;18.02;16.05;;;12.00;99.90;;;;;;5065783;28;20036;-89
2023/09/26 03:28:40;;;;;;;17.70;15.80;;;12.00;99.90;;;;;;5083754;28;21100;-89
2023/09/26 03:31:08;;;;;;;16.65;15.05;;;11.90;99.90;;;;;;5081729;28;20054;-89
2023/09/26 03:33:34;;;;;;;17.27;15.57;;;11.90;99.90;;;;;;5051169;28;20044;-88
2023/09/26 03:36:00;;;;;;;18.20;16.40;;;11.90;99.90;;;;;;5078553;28;20333;-89
2023/09/26 03:38:26;;;;;;;17.08;15.45;;;11.80;99.90;;;;;;5075753;28;20040;-89
2023/09/26 03:41:02;;;;;;;17.63;15.90;;;11.80;99.90;;;;;;5059791;28;20032;-89
2023/09/26 03:43:28;;;;;;;17.30;15.63;;;11.80;99.90;;;;;;5080060;28;20039;-88
2023/09/26 03:46:00;;;;;;;15.75;14.25;;;11.80;99.90;;;;;;5071996;28;20512;-89
2023/09/26 03:48:26;;;;;;;16.08;14.38;;;11.80;99.90;;;;;;5079136;28;20082;-89
2023/09/26 03:50:52;;;;;;;16.65;14.98;;;11.80;99.90;;;;;;5075867;28;20036;-89
2023/09/26 03:53:17;;;;;;;16.50;14.90;;;11.80;99.90;;;;;;5080089;28;20085;-88
2023/09/26 03:55:43;;;;;;;17.98;16.27;;;11.80;99.90;;;;;;5059497;28;20036;-89
2023/09/26 03:58:08;;;;;;;15.93;14.43;;;11.80;99.90;;;;;;5065897;28;20035;-89
2023/09/26 04:00:34;;;;;;;16.70;15.07;;;11.80;99.90;;;;;;5075682;28;20513;-89
2023/09/26 04:03:01;;;;;;;16.58;15.07;;;11.70;99.90;;;;;;5060164;28;20508;-89
2023/09/26 04:05:27;;;;;;;16.77;15.15;;;11.70;99.90;;;;;;5061626;28;20075;-89
2023/09/26 04:07:53;;;;;;;15.90;14.27;;;11.70;99.90;;;;;;5077659;28;20513;-89
2023/09/26 04:10:18;;;;;;;17.52;15.68;;;11.70;99.90;;;;;;5062815;28;20040;-88
2023/09/26 04:12:44;;;;;;;16.42;14.82;;;11.70;99.90;;;;;;5078357;28;20047;-89
2023/09/26 04:15:10;;;;;;;15.65;14.15;;;11.70;99.90;;;;;;5079983;28;20039;-89
2023/09/26 04:17:37;;;;;;;16.77;14.93;;;11.60;99.90;;;;;;5096662;28;20079;-89
2023/09/26 04:20:17;;;;;;;17.30;15.50;;;11.50;99.90;;;;;;5074336;28;20043;-89
2023/09/26 04:22:42;;;;;;;16.15;14.50;;;11.50;99.90;;;;;;5075998;28;20065;-89
2023/09/26 04:25:08;;;;;;;16.13;14.52;;;11.60;99.90;;;;;;5080383;28;20122;-89
2023/09/26 04:27:34;;;;;;;16.80;15.15;;;11.50;99.90;;;;;;5060188;28;20508;-89
2023/09/26 04:29:59;;;;;;;16.48;14.82;;;11.50;99.90;;;;;;5056247;28;20042;-90
2023/09/26 04:32:25;;;;;;;17.30;15.60;;;11.60;99.90;;;;;;5057196;28;20043;-89
2023/09/26 04:34:51;;;;;;;17.17;15.57;;;11.50;99.90;;;;;;5059488;28;20050;-90
2023/09/26 04:37:16;;;;;;;17.45;15.80;;;11.50;99.90;;;;;;5055536;28;20043;-89
2023/09/26 04:39:42;;;;;;;16.35;14.65;;;11.50;99.90;;;;;;5075975;28;20490;-89
2023/09/26 04:42:08;;;;;;;15.82;14.30;;;11.50;99.90;;;;;;5074530;28;20497;-89
2023/09/26 04:44:33;;;;;;;17.80;15.90;;;11.50;99.90;;;;;;5054526;28;20068;-89
2023/09/26 04:46:59;;;;;;;16.80;15.18;;;11.60;99.90;;;;;;5067879;28;20044;-89
2023/09/26 04:49:24;;;;;;;15.88;14.38;;;11.60;99.90;;;;;;5085204;28;20036;-88
2023/09/26 04:51:51;;;;;;;16.55;14.73;;;11.60;99.90;;;;;;5076031;28;20067;-89
2023/09/26 04:54:16;;;;;;;16.60;14.93;;;11.60;99.90;;;;;;5067877;28;20078;-89
2023/09/26 04:56:42;;;;;;;16.63;15.02;;;11.50;99.90;;;;;;5074227;28;20509;-88
2023/09/26 04:59:10;;;;;;;17.77;15.88;;;11.60;99.90;;;;;;5075706;28;20375;-87
2023/09/26 05:01:36;;;;;;;16.30;14.65;;;11.60;99.90;;;;;;5076219;28;20048;-90
2023/09/26 05:04:02;;;;;;;15.63;14.02;;;11.60;99.90;;;;;;5065033;28;20035;-89
2023/09/26 05:06:29;;;;;;;15.88;14.27;;;11.60;99.90;;;;;;5057683;28;20508;-88
2023/09/26 05:08:55;;;;;;;15.77;14.27;;;11.60;99.90;;;;;;5058768;28;20501;-88
2023/09/26 05:11:20;;;;;;;18.58;16.00;;;11.70;99.90;;;;;;5069007;28;20127;-89
2023/09/26 05:13:46;;;;;;;16.85;15.15;;;11.60;99.90;;;;;;5088278;28;20132;-88
2023/09/26 05:16:14;;;;;;;16.45;14.85;;;11.60;99.90;;;;;;5055734;28;20040;-87
2023/09/26 05:18:40;;;;;;;16.83;15.13;;;11.70;99.90;;;;;;5080413;28;20508;-88
2023/09/26 05:21:06;;;;;;;17.10;15.20;;;11.70;99.90;;;;;;5058744;28;20044;-88
2023/09/26 05:23:35;;;;;;;16.02;14.43;;;11.80;99.90;;;;;;5067466;28;20045;-88
2023/09/26 05:26:04;;;;;;;17.88;14.75;;;11.80;99.90;;;;;;5067153;28;20036;-88
2023/09/26 05:28:33;;;;;;;16.95;15.15;;;11.80;99.90;;;;;;5068341;28;20151;-88
2023/09/26 05:30:58;;;;;;;16.77;15.10;;;11.90;99.90;;;;;;5073926;28;20496;-88
2023/09/26 05:33:24;;;;;;;17.25;15.52;;;11.90;99.90;;;;;;5065401;28;20371;-88
2023/09/26 05:35:49;;;;;;;14.65;13.25;;;12.00;99.90;;;;;;5058954;28;20047;-86
2023/09/26 05:38:15;;;;;;;15.45;14.05;;;12.00;99.90;;;;;;5074681;28;20036;-86
2023/09/26 05:40:40;;;;;;;14.82;13.32;;;12.00;99.90;;;;;;5058380;28;20459;-86
2023/09/26 05:43:06;;;;;;;15.77;14.27;;;12.00;99.90;;;;;;5063020;28;20028;-86
2023/09/26 05:45:32;;;;;;;14.43;13.02;;;12.10;99.90;;;;;;5071736;28;20071;-87
2023/09/26 05:47:58;;;;;;;13.32;12.13;;;12.10;99.90;;;;;;5056131;28;20039;-88
2023/09/26 05:50:23;;;;;;;14.32;12.95;;;12.10;99.90;;;;;;5067746;28;20036;-87
2023/09/26 05:52:49;;;;;;;14.82;13.23;;;12.10;99.90;;;;;;5072227;28;20109;-86
2023/09/26 05:55:14;;;;;;;15.77;14.20;;;12.10;99.90;;;;;;5075690;28;20045;-87
2023/09/26 05:57:42;;;;;;;15.40;13.88;;;12.10;99.90;;;;;;5076405;28;20061;-87
2023/09/26 06:00:12;;;;;;;16.63;14.35;;;12.20;99.90;;;;;;5081304;28;20517;-87
2023/09/26 06:02:38;;;;;;;14.63;13.25;;;12.20;99.90;;;;;;5071987;28;20035;-87
2023/09/26 06:05:04;;;;;;;15.20;13.80;;;12.20;99.90;;;;;;5074623;28;20032;-87
2023/09/26 06:07:30;;;;;;;15.32;13.23;;;12.20;99.90;;;;;;5075822;28;20032;-86
2023/09/26 06:09:56;;;;;;;16.45;14.73;;;12.20;99.90;;;;;;5060064;28;20040;-87
2023/09/26 06:12:22;;;;;;;14.85;13.40;;;12.30;99.90;;;;;;5076472;28;20047;-86
2023/09/26 06:14:47;;;;;;;13.70;12.35;;;12.30;99.90;;;;;;5075636;28;20032;-86
2023/09/26 06:17:15;;;;;;;14.18;12.77;;;12.40;99.90;;;;;;5064062;28;20063;-87
2023/09/26 06:19:46;;;;;;;14.73;13.25;;;12.40;99.90;;;;;;5060076;28;20129;-86
2023/09/26 06:22:13;;;;;;;15.00;13.50;;;12.40;99.90;;;;;;5069249;28;20039;-87
2023/09/26 06:24:39;;;;;;;16.05;13.75;;;12.50;99.90;;;;;;5058921;28;20088;-86
2023/09/26 06:27:04;;;;;;;16.50;14.73;;;12.50;99.90;;;;;;5075331;28;20115;-86
2023/09/26 06:29:30;;;;;;;14.93;13.43;;;12.60;99.90;;;;;;5057632;28;20042;-86
2023/09/26 06:31:55;;;;;;;14.30;12.95;;;12.60;99.90;;;;;;5060729;28;20678;-86
2023/09/26 06:34:21;;;;;;;14.50;13.05;;;12.70;99.90;;;;;;5078266;28;20034;-86
2023/09/26 06:36:50;;;;;;;14.45;13.05;;;12.70;99.90;;;;;;5060660;28;20040;-86
2023/09/26 06:39:15;;;;;;;13.60;12.30;;;12.80;99.90;;;;;;5073477;28;20453;-86
2023/09/26 06:41:41;;;;;;;14.82;13.23;;;12.80;99.90;;;;;;5075625;28;20040;-86
2023/09/26 06:44:09;;;;;;;15.57;13.05;;;12.90;99.90;;;;;;5075305;28;20089;-86
2023/09/26 06:46:35;;;;;;;13.02;11.85;;;12.90;99.90;;;;;;5076415;28;20134;-86
2023/09/26 06:49:03;;;;;;;12.63;11.48;;;13.00;99.90;;;;;;5077716;28;20038;-86
2023/09/26 06:51:30;;;;;;;14.63;13.15;;;13.00;99.90;;;;;;5060291;28;20043;-86
2023/09/26 06:53:56;;;;;;;14.55;13.15;;;13.10;99.90;;;;;;5059659;28;20039;-86
2023/09/26 06:56:22;;;;;;;13.55;12.32;;;13.10;99.90;;;;;;5062961;28;20497;-86
2023/09/26 06:58:48;;;;;;;15.85;14.18;;;13.10;99.90;;;;;;5059201;28;20055;-86
2023/09/26 07:01:14;;;;;;;14.90;13.45;;;13.10;99.90;;;;;;5056464;28;20040;-86
2023/09/26 07:03:41;;;;;;;13.50;12.23;;;13.20;99.90;;;;;;5057478;28;20433;-86
2023/09/26 07:06:11;;;;;;;14.23;12.93;;;13.30;99.90;;;;;;5078019;28;20044;-87
2023/09/26 07:08:38;;;;;;;14.98;13.48;;;13.30;99.90;;;;;;5074325;28;20036;-87
2023/09/26 07:11:05;;;;;;;14.27;12.73;;;13.30;99.90;;;;;;5055904;28;20043;-86
2023/09/26 07:13:34;;;;;;;13.02;11.85;;;13.40;99.90;;;;;;5057870;28;20051;-86
2023/09/26 07:16:01;;;;;;;13.75;12.05;;;13.40;99.90;;;;;;5075441;28;20382;-87
2023/09/26 07:18:27;;;;;;;13.90;12.52;;;13.50;99.90;;;;;;5073366;28;20097;-86
2023/09/26 07:20:53;;;;;;;13.55;12.23;;;13.60;99.90;;;;;;5072637;28;20032;-86
2023/09/26 07:23:19;;;;;;;13.88;12.40;;;13.70;99.90;;;;;;5057390;28;20497;-86
2023/09/26 07:25:45;;;;;;;13.48;12.18;;;13.70;99.90;;;;;;5076307;28;20043;-86
2023/09/26 07:28:10;;;;;;;12.82;11.40;;;13.80;99.90;;;;;;5060670;28;20126;-87
2023/09/26 07:30:36;;;;;;;14.45;12.43;;;13.90;99.90;;;;;;5074063;28;20097;-87
2023/09/26 07:33:03;;;;;;;13.82;12.63;;;13.90;99.90;;;;;;5073829;28;20050;-86
2023/09/26 07:35:28;;;;;;;14.48;13.07;;;13.90;99.90;;;;;;5057716;28;20039;-86
2023/09/26 07:37:55;;;;;;;14.60;12.70;;;13.90;99.90;;;;;;5060001;28;20725;-86
2023/09/26 07:40:22;;;;;;;13.45;12.13;;;14.00;99.90;;;;;;5077192;28;20484;-86
2023/09/26 07:42:47;;;;;;;13.43;12.18;;;14.00;99.90;;;;;;5081942;28;20386;-86
2023/09/26 07:45:16;;;;;;;13.57;12.23;;;14.10;99.90;;;;;;5062202;28;20035;-86
2023/09/26 07:47:42;;;;;;;15.05;12.55;;;14.20;99.90;;;;;;5076428;28;20075;-86
2023/09/26 07:50:10;;;;;;;16.00;13.50;;;14.40;99.90;;;;;;5062815;28;20036;-86
2023/09/26 07:52:37;;;;;;;13.07;11.77;;;14.50;99.90;;;;;;5101552;28;20048;-87
2023/09/26 07:55:02;;;;;;;15.25;13.85;;;14.60;99.90;;;;;;5073030;28;20085;-87
2023/09/26 07:57:31;;;;;;;14.10;12.60;;;14.80;99.90;;;;;;5074143;28;20036;-86
2023/09/26 07:59:57;;;;;;;14.60;12.90;;;14.90;99.90;;;;;;5075872;28;20047;-87
2023/09/26 08:02:22;;;;;;;14.00;12.63;;;15.10;99.90;;;;;;5076414;28;20574;-86
2023/09/26 08:04:48;;;;;;;13.52;12.13;;;15.30;99.90;;;;;;5076888;28;20051;-86
2023/09/26 08:07:16;;;;;;;14.07;12.55;;;15.50;99.90;;;;;;5063079;28;20032;-85
2023/09/26 08:09:42;;;;;;;13.23;11.88;;;15.70;99.90;;;;;;5076854;28;20048;-85
2023/09/26 08:12:08;;;;;;;13.88;12.23;;;15.80;99.90;;;;;;5078976;28;20090;-86
2023/09/26 08:14:34;;;;;;;13.52;12.20;;;16.00;99.90;;;;;;5072564;28;20043;-85
2023/09/26 08:17:00;;;;;;;13.05;11.85;;;16.10;99.90;;;;;;5076141;28;20623;-85
2023/09/26 08:19:26;;;;;;;11.27;10.27;;;16.20;99.90;;;;;;5061555;28;20047;-85
2023/09/26 08:21:52;;;;;;;12.45;11.32;;;16.40;99.90;;;;;;5071729;28;20028;-85
2023/09/26 08:24:17;;;;;;;13.88;12.30;;;16.40;99.90;;;;;;5051116;28;20094;-85
2023/09/26 08:26:43;;;;;;;12.65;11.52;;;16.50;99.90;;;;;;5073897;28;20036;-85
2023/09/26 08:29:11;;;;;;;13.00;11.55;;;16.60;99.90;;;;;;5080365;28;20043;-85
2023/09/26 08:31:38;;;;;;;12.63;11.43;;;16.70;99.90;;;;;;5072596;28;20043;-85
2023/09/26 08:34:06;;;;;;;12.65;10.85;;;16.80;99.90;;;;;;5073975;28;20039;-85
2023/09/26 08:36:35;;;;;;;11.57;10.30;;;17.00;99.90;;;;;;5058479;28;20044;-86
2023/09/26 08:39:00;;;;;;;12.60;11.35;;;17.10;99.90;;;;;;5071932;28;20047;-85
2023/09/26 08:41:29;;;;;;;12.88;11.05;;;17.20;99.90;;;;;;5073046;28;20040;-85
2023/09/26 08:43:55;;;;;;;11.77;10.63;;;17.30;99.90;;;;;;5064586;28;20042;-85
2023/09/26 08:46:20;;;;;;;13.07;11.75;;;17.40;99.90;;;;;;5060919;28;20028;-86
2023/09/26 08:48:47;;;;;;;11.73;10.38;;;17.50;99.90;;;;;;5072712;28;20067;-86
2023/09/26 08:51:13;;;;;;;11.63;10.32;;;17.50;99.90;;;;;;5079222;28;20047;-86
2023/09/26 08:53:38;;;;;;;12.02;10.63;;;17.60;99.90;;;;;;5073661;28;20097;-86
2023/09/26 08:56:07;;;;;;;11.55;10.45;;;17.50;99.90;;;;;;5072542;28;20477;-86
2023/09/26 08:58:33;;;;;;;11.43;10.32;;;17.50;99.90;;;;;;5073482;28;20127;-86
2023/09/26 09:03:27;;;;;;;11.48;10.48;;;17.50;99.90;;;;;;5067666;28;20056;-25
2023/09/26 09:05:53;;;;;;;11.80;10.60;;;17.50;99.90;;;;;;5070497;28;20104;-25
2023/09/26 09:08:21;;;;;;;11.80;10.60;;;17.50;99.90;;;;;;5070295;28;20032;-24
2023/09/26 09:10:54;;;;;;;12.43;11.13;;;17.70;99.90;;;;;;5070236;28;20041;-25
2023/09/26 09:13:27;;;;;;;;;;;17.90;99.90;;;;;;5070786;28;20449;-25
2023/09/26 09:16:09;;;;;;;12.15;10.90;;;17.90;99.90;;;;;;5070055;28;19924;-25
2023/09/26 09:18:35;;;;;;;11.18;10.07;;;18.20;99.90;;;;;;5070214;28;20503;-25
2023/09/26 09:21:18;;;;;;;10.65;9.63;;;18.50;99.90;;;;;;5052304;28;20449;-25
2023/09/26 09:23:48;;;;;;;11.10;10.00;;;18.70;99.90;;;;;;5070328;28;20041;-25
2023/09/26 09:26:14;;;;;;;11.40;10.25;;;19.00;99.90;;;;;;5070350;28;20067;-24
2023/09/26 09:28:39;;;;;;;10.27;9.30;;;19.30;99.90;;;;;;5051763;28;20529;-25
2023/09/26 09:31:05;;;;;;;9.95;8.93;;;19.60;99.90;;;;;;5053867;28;20040;-26
2023/09/26 09:33:31;;;;;;;9.65;8.75;;;19.80;99.90;;;;;;5074333;28;20460;-25
2023/09/26 09:35:57;;;;;;;8.77;7.97;;;19.90;99.90;;;;;;5074252;28;20147;-25
2023/09/26 09:38:23;;;;;;;9.05;8.25;;;20.10;99.90;;;;;;5074007;28;20157;-27
2023/09/26 09:40:49;;;;;;;8.73;7.72;;;20.40;99.90;;;;;;5073953;28;20029;-25
2023/09/26 09:43:14;;;;;;;9.00;8.10;;;20.70;99.90;;;;;;5074209;28;20541;-25
2023/09/26 09:45:42;;;;;;;9.30;8.27;;;21.30;99.90;;;;;;5073693;28;20033;-24
2023/09/26 09:48:09;;;;;;;8.75;8.02;;;21.60;99.90;;;;;;5074071;28;20049;-24
2023/09/26 09:50:39;;;;;;;8.90;7.90;;;21.40;99.90;;;;;;5056485;28;20048;-25
2023/09/26 09:53:06;;;;;;;9.02;8.10;;;21.10;99.90;;;;;;5074295;28;20052;-25
2023/09/26 09:55:39;;;;;;;9.95;8.95;;;20.70;99.90;;;;;;5073837;28;20563;-25
2023/09/26 09:58:11;;;;;;;9.88;8.98;;;20.50;99.90;;;;;;5073623;28;20467;-25
2023/09/26 10:00:39;;;;;;;9.10;8.30;;;20.50;99.90;;;;;;5073118;28;20040;-24
2023/09/26 10:03:05;;;;;;;10.13;9.23;;;20.70;99.90;;;;;;5073320;28;20491;-25
2023/09/26 10:05:31;;;;;;;9.25;8.35;;;20.80;99.90;;;;;;5073210;28;20399;-25
2023/09/26 10:07:59;;;;;;;9.38;8.55;;;20.90;99.90;;;;;;5073525;28;20044;-27
2023/09/26 10:10:26;;;;;;;8.52;7.72;;;21.50;99.90;;;;;;5073191;28;20055;-25
2023/09/26 10:12:52;;;;;;;9.05;8.35;;;21.90;99.90;;;;;;5073347;28;20052;-25
2023/09/26 10:15:18;;;;;;;10.25;9.27;;;22.20;99.90;;;;;;5073354;28;20483;-25
2023/09/26 10:17:48;;;;;;;10.60;8.88;;;22.10;99.90;;;;;;5073233;28;20408;-25
2023/09/26 10:20:16;;;;;;;9.25;8.35;;;22.20;99.90;;;;;;5054766;28;20052;-26
2023/09/26 10:22:43;;;;;;;10.05;8.90;;;22.30;99.90;;;;;;5073162;28;20045;-25
2023/09/26 10:25:19;;;;;;;9.32;8.32;;;22.20;99.90;;;;;;5073185;28;20044;-27
2023/09/26 10:27:50;;;;;;;9.45;8.55;;;22.20;99.90;;;;;;5072677;28;20047;-25
2023/09/26 10:30:18;;;;;;;9.80;8.90;;;22.10;99.90;;;;;;5073065;28;20491;-25
2023/09/26 10:32:45;;;;;;;10.35;8.38;;;22.10;99.90;;;;;;5072986;28;20114;-25
2023/09/26 10:35:13;;;;;;;9.10;8.25;;;22.10;99.90;;;;;;5072618;28;20043;-25
2023/09/26 10:37:49;;;;;;;9.77;8.88;;;22.10;99.90;;;;;;5072552;28;20101;-25
2023/09/26 10:40:18;;;;;;;9.32;8.20;;;21.90;99.90;;;;;;5072560;28;20040;-26
2023/09/26 10:42:49;;;;;;;9.68;8.43;;;22.00;99.90;;;;;;5071304;28;20048;-25
2023/09/26 10:45:15;;;;;;;9.23;8.32;;;22.10;99.90;;;;;;5072944;28;20437;-25
2023/09/26 10:47:41;;;;;;;10.60;8.80;;;22.10;99.90;;;;;;5072619;28;20389;-25
2023/09/26 10:50:14;;;;;;;9.30;8.40;;;21.90;99.90;;;;;;5073300;28;20051;-27
2023/09/26 10:52:49;;;;;;;9.07;8.18;;;21.80;99.90;;;;;;5073212;28;20044;-25
2023/09/26 10:55:20;;;;;;;9.77;8.60;;;21.70;99.90;;;;;;5073019;28;20036;-26
2023/09/26 10:57:46;;;;;;;8.07;7.28;;;21.70;99.90;;;;;;5072578;28;20120;-25
2023/09/26 11:00:13;;;;;;;8.50;7.65;;;21.80;99.90;;;;;;5072438;28;20037;-25
2023/09/26 11:02:41;;;;;;;8.55;7.65;;;21.90;99.90;;;;;;5072367;28;20044;-25
2023/09/26 11:05:11;;;;;;;10.80;7.90;;;21.90;99.90;;;;;;5072472;28;20037;-27
2023/09/26 11:07:38;;;;;;;9.75;8.77;;;22.00;99.90;;;;;;5072451;28;20503;-27
2023/09/26 11:10:04;;;;;;;8.68;7.78;;;22.30;99.90;;;;;;5072267;28;20040;-25
2023/09/26 11:12:31;;;;;;;8.35;7.55;;;22.50;99.90;;;;;;5072260;28;20486;-25
2023/09/26 11:15:00;;;;;;;8.55;7.75;;;22.40;99.90;;;;;;5072239;28;20076;-25
2023/09/26 11:17:27;;;;;;;8.80;7.95;;;22.40;99.90;;;;;;5072132;28;20322;-25
2023/09/26 11:19:57;;;;;;;8.30;7.50;;;22.40;99.90;;;;;;5072026;28;20040;-25
2023/09/26 11:22:24;;;;;;;8.63;7.82;;;22.30;99.90;;;;;;5071917;28;20131;-25
2023/09/26 11:25:06;;;;;;;8.85;7.95;;;22.30;99.90;;;;;;5072024;28;20095;-25
2023/09/26 11:27:36;;;;;;;8.48;6.60;;;22.40;99.90;;;;;;5071693;28;20057;-25
2023/09/26 11:30:03;;;;;;;8.82;8.02;;;22.50;99.90;;;;;;5071786;28;20044;-25
2023/09/26 11:32:29;;;;;;;8.18;7.05;;;22.50;99.90;;;;;;5071921;28;20099;-25
2023/09/26 11:34:54;;;;;;;8.43;7.10;;;22.50;99.90;;;;;;5071972;28;20091;-25
2023/09/26 11:37:23;;;;;;;7.45;6.75;;;22.50;99.90;;;;;;5071513;28;20117;-26
2023/09/26 11:39:52;;;;;;;7.70;6.78;;;22.50;99.90;;;;;;5071770;28;20043;-25
2023/09/26 11:42:18;;;;;;;7.38;6.63;;;22.40;99.90;;;;;;5071539;28;20095;-25
2023/09/26 11:44:52;;;;;;;8.30;7.47;;;22.40;99.90;;;;;;5054146;28;20048;-25
2023/09/26 11:47:17;;;;;;;7.82;6.55;;;22.40;99.90;;;;;;5072250;28;20043;-25
2023/09/26 11:49:43;;;;;;;7.03;6.00;;;22.30;99.90;;;;;;5037301;28;20127;-25
2023/09/26 11:52:09;;;;;;;7.45;6.03;;;22.30;99.90;;;;;;5071531;28;20092;-25
2023/09/26 11:54:36;;;;;;;7.40;6.60;;;22.20;99.90;;;;;;5070991;28;20032;-25
2023/09/26 11:57:02;;;;;;;8.63;6.50;;;22.20;99.90;;;;;;5072058;28;20036;-26
2023/09/26 11:59:28;;;;;;;6.97;6.22;;;22.30;99.90;;;;;;5073323;28;20112;-25
2023/09/26 12:01:56;;;;;;;7.18;5.45;;;22.40;99.90;;;;;;5072688;28;20123;-25
2023/09/26 12:04:22;;;;;;;6.63;6.03;;;22.40;99.90;;;;;;5072641;28;20102;-24
2023/09/26 12:06:48;;;;;;;8.85;6.57;;;22.50;99.90;;;;;;5072540;28;20032;-25
2023/09/26 12:09:21;;;;;;;6.75;6.13;;;22.50;99.90;;;;;;5054685;28;20044;-24
2023/09/26 12:11:53;;;;;;;8.52;6.95;;;22.60;99.90;;;;;;5073170;28;20071;-25
2023/09/26 12:14:19;;;;;;;6.97;5.90;;;22.80;99.90;;;;;;5072638;28;20391;-25
2023/09/26 12:16:50;;;;;;;7.30;5.85;;;23.10;99.90;;;;;;5072776;28;20174;-25
2023/09/26 12:19:16;;;;;;;6.43;5.75;;;23.30;99.90;;;;;;5072554;28;20426;-25
2023/09/26 12:21:42;;;;;;;8.93;6.35;;;23.70;99.90;;;;;;5072898;28;20098;-27
2023/09/26 12:24:08;;;;;;;6.97;6.28;;;23.90;99.90;;;;;;5054836;28;20108;-25
2023/09/26 12:26:33;;;;;;;8.10;6.30;;;24.00;99.90;;;;;;5054090;28;20039;-25
2023/09/26 12:28:59;;;;;;;6.75;6.10;;;23.90;99.90;;;;;;5070995;28;20537;-25
2023/09/26 12:31:25;;;;;;;7.75;6.82;;;23.90;99.90;;;;;;5069045;28;20040;-25
2023/09/26 12:33:51;;;;;;;6.32;5.80;;;23.80;99.90;;;;;;5068367;28;20033;-25